sensor_id;sensor_type;location;lat;lon;timestamp;temperature;humidity
30148;DHT22;16960;49.404;8.248;2022-08-07T00:00:52;22.80;34.00
30148;DHT22;16960;49.404;8.248;2022-08-07T00:03:19;22.80;34.00
30148;DHT22;16960;49.404;8.248;2022-08-07T00:05:47;22.80;34.10
30148;DHT22;16960;49.404;8.248;2022-08-07T00:08:15;22.70;34.00
30148;DHT22;16960;49.404;8.248;2022-08-07T00:10:42;22.80;34.20
30148;DHT22;16960;49.404;8.248;2022-08-07T00:13:09;22.70;34.10
30148;DHT22;16960;49.404;8.248;2022-08-07T00:15:38;22.80;34.00
30148;DHT22;16960;49.404;8.248;2022-08-07T00:18:05;22.70;34.10
30148;DHT22;16960;49.404;8.248;2022-08-07T00:20:34;22.70;34.20
30148;DHT22;16960;49.404;8.248;2022-08-07T00:23:01;22.70;34.20
30148;DHT22;16960;49.404;8.248;2022-08-07T00:25:29;22.70;34.30
30148;DHT22;16960;49.404;8.248;2022-08-07T00:27:56;22.70;34.30
30148;DHT22;16960;49.404;8.248;2022-08-07T00:30:24;22.70;34.30
30148;DHT22;16960;49.404;8.248;2022-08-07T00:32:52;22.70;34.40
30148;DHT22;16960;49.404;8.248;2022-08-07T00:35:20;22.70;34.40
30148;DHT22;16960;49.404;8.248;2022-08-07T00:37:47;22.60;34.40
30148;DHT22;16960;49.404;8.248;2022-08-07T00:40:14;22.60;34.50
30148;DHT22;16960;49.404;8.248;2022-08-07T00:42:41;22.60;34.40
30148;DHT22;16960;49.404;8.248;2022-08-07T00:45:10;22.60;34.50
30148;DHT22;16960;49.404;8.248;2022-08-07T00:47:37;22.50;34.50
30148;DHT22;16960;49.404;8.248;2022-08-07T00:50:07;22.60;34.50
30148;DHT22;16960;49.404;8.248;2022-08-07T00:52:34;22.60;34.50
30148;DHT22;16960;49.404;8.248;2022-08-07T00:55:01;22.60;34.50
30148;DHT22;16960;49.404;8.248;2022-08-07T00:57:28;22.50;34.50
30148;DHT22;16960;49.404;8.248;2022-08-07T00:59:55;22.60;34.50
30148;DHT22;16960;49.404;8.248;2022-08-07T01:02:23;22.50;34.50
30148;DHT22;16960;49.404;8.248;2022-08-07T01:04:50;22.50;34.60
30148;DHT22;16960;49.404;8.248;2022-08-07T01:07:21;22.50;34.60
30148;DHT22;16960;49.404;8.248;2022-08-07T01:09:48;22.50;34.60
30148;DHT22;16960;49.404;8.248;2022-08-07T01:12:15;22.50;34.60
30148;DHT22;16960;49.404;8.248;2022-08-07T01:14:42;22.50;34.70
30148;DHT22;16960;49.404;8.248;2022-08-07T01:17:10;22.50;34.70
30148;DHT22;16960;49.404;8.248;2022-08-07T01:19:38;22.50;34.70
30148;DHT22;16960;49.404;8.248;2022-08-07T01:22:06;22.50;34.70
30148;DHT22;16960;49.404;8.248;2022-08-07T01:24:34;22.40;34.60
30148;DHT22;16960;49.404;8.248;2022-08-07T01:27:01;22.40;34.60
30148;DHT22;16960;49.404;8.248;2022-08-07T01:29:29;22.40;34.60
30148;DHT22;16960;49.404;8.248;2022-08-07T01:31:58;22.50;34.70
30148;DHT22;16960;49.404;8.248;2022-08-07T01:34:29;22.40;34.70
30148;DHT22;16960;49.404;8.248;2022-08-07T01:36:56;22.40;34.60
30148;DHT22;16960;49.404;8.248;2022-08-07T01:39:24;22.40;34.60
30148;DHT22;16960;49.404;8.248;2022-08-07T01:41:52;22.40;34.70
30148;DHT22;16960;49.404;8.248;2022-08-07T01:44:19;22.40;34.70
30148;DHT22;16960;49.404;8.248;2022-08-07T01:46:46;22.40;34.70
30148;DHT22;16960;49.404;8.248;2022-08-07T01:49:13;22.40;34.80
30148;DHT22;16960;49.404;8.248;2022-08-07T01:51:41;22.30;34.70
30148;DHT22;16960;49.404;8.248;2022-08-07T01:54:10;22.40;34.80
30148;DHT22;16960;49.404;8.248;2022-08-07T01:56:45;22.40;34.80
30148;DHT22;16960;49.404;8.248;2022-08-07T01:59:17;22.30;34.80
30148;DHT22;16960;49.404;8.248;2022-08-07T02:01:49;22.30;34.80
30148;DHT22;16960;49.404;8.248;2022-08-07T02:04:24;22.30;34.80
30148;DHT22;16960;49.404;8.248;2022-08-07T02:06:54;22.30;34.90
30148;DHT22;16960;49.404;8.248;2022-08-07T02:09:23;22.30;34.90
30148;DHT22;16960;49.404;8.248;2022-08-07T02:11:53;22.30;34.90
30148;DHT22;16960;49.404;8.248;2022-08-07T02:14:21;22.30;34.90
30148;DHT22;16960;49.404;8.248;2022-08-07T02:16:50;22.30;35.00
30148;DHT22;16960;49.404;8.248;2022-08-07T02:19:19;22.30;35.00
30148;DHT22;16960;49.404;8.248;2022-08-07T02:21:46;22.30;35.00
30148;DHT22;16960;49.404;8.248;2022-08-07T02:24:15;22.30;35.00
30148;DHT22;16960;49.404;8.248;2022-08-07T02:26:43;22.20;34.90
30148;DHT22;16960;49.404;8.248;2022-08-07T02:29:13;22.20;35.00
30148;DHT22;16960;49.404;8.248;2022-08-07T02:31:41;22.10;35.00
30148;DHT22;16960;49.404;8.248;2022-08-07T02:34:08;22.10;35.10
30148;DHT22;16960;49.404;8.248;2022-08-07T02:36:36;22.10;35.10
30148;DHT22;16960;49.404;8.248;2022-08-07T02:39:05;22.10;35.00
30148;DHT22;16960;49.404;8.248;2022-08-07T02:41:33;22.10;35.10
30148;DHT22;16960;49.404;8.248;2022-08-07T02:44:01;22.10;35.10
30148;DHT22;16960;49.404;8.248;2022-08-07T02:46:31;22.00;35.10
30148;DHT22;16960;49.404;8.248;2022-08-07T02:49:00;22.00;35.10
30148;DHT22;16960;49.404;8.248;2022-08-07T02:51:32;22.00;35.10
30148;DHT22;16960;49.404;8.248;2022-08-07T02:54:01;22.00;35.20
30148;DHT22;16960;49.404;8.248;2022-08-07T02:56:30;22.00;35.20
30148;DHT22;16960;49.404;8.248;2022-08-07T02:59:01;22.00;35.10
30148;DHT22;16960;49.404;8.248;2022-08-07T03:01:31;22.00;35.20
30148;DHT22;16960;49.404;8.248;2022-08-07T03:03:59;21.90;35.20
30148;DHT22;16960;49.404;8.248;2022-08-07T03:06:28;21.90;35.30
30148;DHT22;16960;49.404;8.248;2022-08-07T03:08:55;21.90;35.30
30148;DHT22;16960;49.404;8.248;2022-08-07T03:11:22;21.90;35.30
30148;DHT22;16960;49.404;8.248;2022-08-07T03:13:50;21.90;35.30
30148;DHT22;16960;49.404;8.248;2022-08-07T03:16:18;21.90;35.40
30148;DHT22;16960;49.404;8.248;2022-08-07T03:18:47;21.90;35.40
30148;DHT22;16960;49.404;8.248;2022-08-07T03:21:14;21.90;35.40
30148;DHT22;16960;49.404;8.248;2022-08-07T03:23:44;21.80;35.30
30148;DHT22;16960;49.404;8.248;2022-08-07T03:26:13;21.80;35.40
30148;DHT22;16960;49.404;8.248;2022-08-07T03:28:45;21.80;35.40
30148;DHT22;16960;49.404;8.248;2022-08-07T03:31:13;21.80;35.40
30148;DHT22;16960;49.404;8.248;2022-08-07T03:33:49;21.80;35.40
30148;DHT22;16960;49.404;8.248;2022-08-07T03:36:18;21.70;35.40
30148;DHT22;16960;49.404;8.248;2022-08-07T03:38:47;21.80;35.50
30148;DHT22;16960;49.404;8.248;2022-08-07T03:41:15;21.80;35.60
30148;DHT22;16960;49.404;8.248;2022-08-07T03:43:42;21.70;35.50
30148;DHT22;16960;49.404;8.248;2022-08-07T03:46:11;21.70;35.50
30148;DHT22;16960;49.404;8.248;2022-08-07T03:48:39;21.70;35.50
30148;DHT22;16960;49.404;8.248;2022-08-07T03:51:08;21.70;35.50
30148;DHT22;16960;49.404;8.248;2022-08-07T03:53:37;21.70;35.60
30148;DHT22;16960;49.404;8.248;2022-08-07T03:56:06;21.70;35.60
30148;DHT22;16960;49.404;8.248;2022-08-07T03:58:33;21.70;35.60
30148;DHT22;16960;49.404;8.248;2022-08-07T04:01:03;21.70;35.60
30148;DHT22;16960;49.404;8.248;2022-08-07T04:03:30;21.70;35.60
30148;DHT22;16960;49.404;8.248;2022-08-07T04:05:58;21.70;35.60
30148;DHT22;16960;49.404;8.248;2022-08-07T04:08:27;21.70;35.60
30148;DHT22;16960;49.404;8.248;2022-08-07T04:10:55;21.70;35.60
30148;DHT22;16960;49.404;8.248;2022-08-07T04:13:23;21.60;35.70
30148;DHT22;16960;49.404;8.248;2022-08-07T04:15:50;21.60;35.60
30148;DHT22;16960;49.404;8.248;2022-08-07T04:18:17;21.60;35.60
30148;DHT22;16960;49.404;8.248;2022-08-07T04:20:45;21.60;35.70
30148;DHT22;16960;49.404;8.248;2022-08-07T04:23:12;21.60;35.70
30148;DHT22;16960;49.404;8.248;2022-08-07T04:25:42;21.60;35.70
30148;DHT22;16960;49.404;8.248;2022-08-07T04:28:09;21.60;35.70
30148;DHT22;16960;49.404;8.248;2022-08-07T04:30:38;21.50;35.70
30148;DHT22;16960;49.404;8.248;2022-08-07T04:33:06;21.50;35.80
30148;DHT22;16960;49.404;8.248;2022-08-07T04:35:34;21.40;35.80
30148;DHT22;16960;49.404;8.248;2022-08-07T04:38:05;21.40;35.80
30148;DHT22;16960;49.404;8.248;2022-08-07T04:40:32;21.40;35.90
30148;DHT22;16960;49.404;8.248;2022-08-07T04:43:01;21.40;35.90
30148;DHT22;16960;49.404;8.248;2022-08-07T04:45:33;21.40;36.00
30148;DHT22;16960;49.404;8.248;2022-08-07T04:48:07;21.40;36.00
30148;DHT22;16960;49.404;8.248;2022-08-07T04:50:51;21.30;36.00
30148;DHT22;16960;49.404;8.248;2022-08-07T04:53:24;21.30;36.10
30148;DHT22;16960;49.404;8.248;2022-08-07T04:55:58;21.30;36.20
30148;DHT22;16960;49.404;8.248;2022-08-07T04:58:33;21.30;36.30
30148;DHT22;16960;49.404;8.248;2022-08-07T05:01:09;21.20;36.20
30148;DHT22;16960;49.404;8.248;2022-08-07T05:03:45;21.20;36.30
30148;DHT22;16960;49.404;8.248;2022-08-07T05:06:17;21.20;36.40
30148;DHT22;16960;49.404;8.248;2022-08-07T05:08:49;21.10;36.50
30148;DHT22;16960;49.404;8.248;2022-08-07T05:11:21;21.10;36.50
30148;DHT22;16960;49.404;8.248;2022-08-07T05:13:54;21.10;36.50
30148;DHT22;16960;49.404;8.248;2022-08-07T05:16:25;21.10;36.60
30148;DHT22;16960;49.404;8.248;2022-08-07T05:18:58;21.10;37.20
30148;DHT22;16960;49.404;8.248;2022-08-07T05:21:26;21.10;36.60
30148;DHT22;16960;49.404;8.248;2022-08-07T05:23:57;21.10;36.60
30148;DHT22;16960;49.404;8.248;2022-08-07T05:26:26;21.10;36.70
30148;DHT22;16960;49.404;8.248;2022-08-07T05:28:58;21.20;36.70
30148;DHT22;16960;49.404;8.248;2022-08-07T05:31:28;21.10;36.80
30148;DHT22;16960;49.404;8.248;2022-08-07T05:33:58;21.10;36.90
30148;DHT22;16960;49.404;8.248;2022-08-07T05:36:26;21.10;36.90
30148;DHT22;16960;49.404;8.248;2022-08-07T05:38:55;21.10;36.90
30148;DHT22;16960;49.404;8.248;2022-08-07T05:41:23;21.10;36.90
30148;DHT22;16960;49.404;8.248;2022-08-07T05:43:53;21.10;37.00
30148;DHT22;16960;49.404;8.248;2022-08-07T05:46:22;21.10;37.00
30148;DHT22;16960;49.404;8.248;2022-08-07T05:48:51;21.20;37.00
30148;DHT22;16960;49.404;8.248;2022-08-07T05:51:19;21.20;37.10
30148;DHT22;16960;49.404;8.248;2022-08-07T05:53:47;21.20;37.20
30148;DHT22;16960;49.404;8.248;2022-08-07T05:56:17;21.10;37.20
30148;DHT22;16960;49.404;8.248;2022-08-07T05:58:46;21.10;37.20
30148;DHT22;16960;49.404;8.248;2022-08-07T06:01:14;21.10;37.40
30148;DHT22;16960;49.404;8.248;2022-08-07T06:03:47;21.10;37.40
30148;DHT22;16960;49.404;8.248;2022-08-07T06:06:15;21.10;37.50
30148;DHT22;16960;49.404;8.248;2022-08-07T06:08:42;21.10;37.40
30148;DHT22;16960;49.404;8.248;2022-08-07T06:11:11;21.20;37.50
30148;DHT22;16960;49.404;8.248;2022-08-07T06:13:38;21.20;37.50
30148;DHT22;16960;49.404;8.248;2022-08-07T06:16:06;21.20;37.50
30148;DHT22;16960;49.404;8.248;2022-08-07T06:18:34;21.20;37.60
30148;DHT22;16960;49.404;8.248;2022-08-07T06:21:04;21.20;37.60
30148;DHT22;16960;49.404;8.248;2022-08-07T06:23:32;21.20;37.60
30148;DHT22;16960;49.404;8.248;2022-08-07T06:25:59;21.20;37.70
30148;DHT22;16960;49.404;8.248;2022-08-07T06:28:27;21.20;37.80
30148;DHT22;16960;49.404;8.248;2022-08-07T06:30:54;21.20;37.80
30148;DHT22;16960;49.404;8.248;2022-08-07T06:33:23;21.20;37.90
30148;DHT22;16960;49.404;8.248;2022-08-07T06:35:50;21.20;37.90
30148;DHT22;16960;49.404;8.248;2022-08-07T06:38:19;21.30;38.20
30148;DHT22;16960;49.404;8.248;2022-08-07T06:40:48;21.20;38.20
30148;DHT22;16960;49.404;8.248;2022-08-07T06:43:19;21.20;38.10
30148;DHT22;16960;49.404;8.248;2022-08-07T06:45:47;21.30;38.10
30148;DHT22;16960;49.404;8.248;2022-08-07T06:48:14;21.30;38.10
30148;DHT22;16960;49.404;8.248;2022-08-07T06:50:42;21.30;38.00
30148;DHT22;16960;49.404;8.248;2022-08-07T06:53:11;21.30;38.10
30148;DHT22;16960;49.404;8.248;2022-08-07T06:55:41;21.30;38.00
30148;DHT22;16960;49.404;8.248;2022-08-07T06:58:10;21.30;38.00
30148;DHT22;16960;49.404;8.248;2022-08-07T07:00:39;21.30;38.00
30148;DHT22;16960;49.404;8.248;2022-08-07T07:03:07;21.30;38.00
30148;DHT22;16960;49.404;8.248;2022-08-07T07:05:35;21.30;38.70
30148;DHT22;16960;49.404;8.248;2022-08-07T07:08:03;21.30;38.10
30148;DHT22;16960;49.404;8.248;2022-08-07T07:10:32;21.30;38.10
30148;DHT22;16960;49.404;8.248;2022-08-07T07:13:04;21.30;38.20
30148;DHT22;16960;49.404;8.248;2022-08-07T07:15:40;21.30;38.20
30148;DHT22;16960;49.404;8.248;2022-08-07T07:18:13;21.30;38.20
30148;DHT22;16960;49.404;8.248;2022-08-07T07:20:44;21.30;38.20
30148;DHT22;16960;49.404;8.248;2022-08-07T07:23:13;21.30;38.20
30148;DHT22;16960;49.404;8.248;2022-08-07T07:25:42;21.40;38.20
30148;DHT22;16960;49.404;8.248;2022-08-07T07:28:15;21.30;38.30
30148;DHT22;16960;49.404;8.248;2022-08-07T07:30:48;21.40;38.30
30148;DHT22;16960;49.404;8.248;2022-08-07T07:33:17;21.40;38.30
30148;DHT22;16960;49.404;8.248;2022-08-07T07:35:49;21.40;38.20
30148;DHT22;16960;49.404;8.248;2022-08-07T07:38:18;21.40;38.30
30148;DHT22;16960;49.404;8.248;2022-08-07T07:40:47;21.40;38.40
30148;DHT22;16960;49.404;8.248;2022-08-07T07:43:17;21.50;38.40
30148;DHT22;16960;49.404;8.248;2022-08-07T07:45:46;21.50;38.40
30148;DHT22;16960;49.404;8.248;2022-08-07T07:48:18;21.50;38.60
30148;DHT22;16960;49.404;8.248;2022-08-07T07:50:46;21.50;38.90
30148;DHT22;16960;49.404;8.248;2022-08-07T07:53:16;21.60;38.90
30148;DHT22;16960;49.404;8.248;2022-08-07T07:55:44;21.60;39.10
30148;DHT22;16960;49.404;8.248;2022-08-07T07:58:12;21.60;39.00
30148;DHT22;16960;49.404;8.248;2022-08-07T08:00:42;21.70;39.00
30148;DHT22;16960;49.404;8.248;2022-08-07T08:03:13;21.70;39.00
30148;DHT22;16960;49.404;8.248;2022-08-07T08:05:42;21.80;39.10
30148;DHT22;16960;49.404;8.248;2022-08-07T08:08:10;21.80;39.10
30148;DHT22;16960;49.404;8.248;2022-08-07T08:10:38;21.90;39.30
30148;DHT22;16960;49.404;8.248;2022-08-07T08:13:08;21.90;39.10
30148;DHT22;16960;49.404;8.248;2022-08-07T08:15:37;22.00;39.10
30148;DHT22;16960;49.404;8.248;2022-08-07T08:18:08;22.10;39.20
30148;DHT22;16960;49.404;8.248;2022-08-07T08:20:37;22.10;39.10
30148;DHT22;16960;49.404;8.248;2022-08-07T08:23:06;22.10;39.00
30148;DHT22;16960;49.404;8.248;2022-08-07T08:25:52;22.10;39.00
30148;DHT22;16960;49.404;8.248;2022-08-07T08:28:50;22.20;38.80
30148;DHT22;16960;49.404;8.248;2022-08-07T08:31:21;22.20;39.10
30148;DHT22;16960;49.404;8.248;2022-08-07T08:33:52;22.20;40.10
30148;DHT22;16960;49.404;8.248;2022-08-07T08:36:23;22.30;39.20
30148;DHT22;16960;49.404;8.248;2022-08-07T08:38:50;22.40;39.10
30148;DHT22;16960;49.404;8.248;2022-08-07T08:41:28;22.40;38.90
30148;DHT22;16960;49.404;8.248;2022-08-07T08:44:01;22.50;38.90
30148;DHT22;16960;49.404;8.248;2022-08-07T08:46:37;22.50;38.80
30148;DHT22;16960;49.404;8.248;2022-08-07T08:49:22;22.50;38.80
30148;DHT22;16960;49.404;8.248;2022-08-07T08:51:55;22.50;38.70
30148;DHT22;16960;49.404;8.248;2022-08-07T08:54:27;22.60;38.60
30148;DHT22;16960;49.404;8.248;2022-08-07T08:56:58;22.60;38.50
30148;DHT22;16960;49.404;8.248;2022-08-07T08:59:32;22.60;38.40
30148;DHT22;16960;49.404;8.248;2022-08-07T09:02:09;22.60;38.40
30148;DHT22;16960;49.404;8.248;2022-08-07T09:04:45;22.60;38.30
30148;DHT22;16960;49.404;8.248;2022-08-07T09:07:18;22.60;38.30
30148;DHT22;16960;49.404;8.248;2022-08-07T09:09:57;22.70;38.40
30148;DHT22;16960;49.404;8.248;2022-08-07T09:12:41;22.70;38.30
30148;DHT22;16960;49.404;8.248;2022-08-07T09:15:17;22.70;38.30
30148;DHT22;16960;49.404;8.248;2022-08-07T09:18:01;22.70;38.30
30148;DHT22;16960;49.404;8.248;2022-08-07T09:20:44;22.70;38.30
30148;DHT22;16960;49.404;8.248;2022-08-07T09:23:25;22.70;38.20
30148;DHT22;16960;49.404;8.248;2022-08-07T09:26:05;22.70;38.20
30148;DHT22;16960;49.404;8.248;2022-08-07T09:28:38;22.80;38.10
30148;DHT22;16960;49.404;8.248;2022-08-07T09:31:12;22.80;38.10
30148;DHT22;16960;49.404;8.248;2022-08-07T09:33:58;22.80;38.10
30148;DHT22;16960;49.404;8.248;2022-08-07T09:36:35;22.80;38.10
30148;DHT22;16960;49.404;8.248;2022-08-07T09:39:18;22.80;38.00
30148;DHT22;16960;49.404;8.248;2022-08-07T09:41:56;22.90;38.10
30148;DHT22;16960;49.404;8.248;2022-08-07T09:44:38;22.90;38.00
30148;DHT22;16960;49.404;8.248;2022-08-07T09:47:13;22.90;38.00
30148;DHT22;16960;49.404;8.248;2022-08-07T09:49:54;22.90;38.00
30148;DHT22;16960;49.404;8.248;2022-08-07T09:52:28;22.90;38.00
30148;DHT22;16960;49.404;8.248;2022-08-07T09:55:00;22.90;37.90
30148;DHT22;16960;49.404;8.248;2022-08-07T10:00:37;22.90;37.90
30148;DHT22;16960;49.404;8.248;2022-08-07T10:06:30;23.00;37.90
30148;DHT22;16960;49.404;8.248;2022-08-07T10:09:12;23.00;37.90
30148;DHT22;16960;49.404;8.248;2022-08-07T10:11:52;23.10;37.90
30148;DHT22;16960;49.404;8.248;2022-08-07T10:17:59;23.10;37.90
30148;DHT22;16960;49.404;8.248;2022-08-07T10:20:41;23.10;37.80
30148;DHT22;16960;49.404;8.248;2022-08-07T10:23:36;23.20;37.80
30148;DHT22;16960;49.404;8.248;2022-08-07T10:26:21;23.20;37.80
30148;DHT22;16960;49.404;8.248;2022-08-07T10:29:02;23.20;37.80
30148;DHT22;16960;49.404;8.248;2022-08-07T10:31:58;23.20;37.80
30148;DHT22;16960;49.404;8.248;2022-08-07T10:34:41;23.20;37.80
30148;DHT22;16960;49.404;8.248;2022-08-07T10:37:23;23.20;37.80
30148;DHT22;16960;49.404;8.248;2022-08-07T10:40:00;23.30;37.80
30148;DHT22;16960;49.404;8.248;2022-08-07T10:42:35;23.30;37.80
30148;DHT22;16960;49.404;8.248;2022-08-07T10:45:14;23.30;37.80
30148;DHT22;16960;49.404;8.248;2022-08-07T10:47:47;23.30;37.80
30148;DHT22;16960;49.404;8.248;2022-08-07T10:50:21;23.40;37.70
30148;DHT22;16960;49.404;8.248;2022-08-07T10:52:58;23.40;37.70
30148;DHT22;16960;49.404;8.248;2022-08-07T10:55:30;23.40;37.70
30148;DHT22;16960;49.404;8.248;2022-08-07T10:58:12;23.40;37.70
30148;DHT22;16960;49.404;8.248;2022-08-07T11:00:48;23.50;37.80
30148;DHT22;16960;49.404;8.248;2022-08-07T11:03:25;23.50;38.30
30148;DHT22;16960;49.404;8.248;2022-08-07T11:06:04;23.50;38.10
30148;DHT22;16960;49.404;8.248;2022-08-07T11:08:39;23.60;38.10
30148;DHT22;16960;49.404;8.248;2022-08-07T11:11:13;23.60;38.00
30148;DHT22;16960;49.404;8.248;2022-08-07T11:13:46;23.60;38.10
30148;DHT22;16960;49.404;8.248;2022-08-07T11:16:19;23.70;38.00
30148;DHT22;16960;49.404;8.248;2022-08-07T11:18:50;23.70;37.90
30148;DHT22;16960;49.404;8.248;2022-08-07T11:21:28;23.80;37.90
30148;DHT22;16960;49.404;8.248;2022-08-07T11:24:04;23.80;37.90
30148;DHT22;16960;49.404;8.248;2022-08-07T11:26:40;23.80;37.80
30148;DHT22;16960;49.404;8.248;2022-08-07T11:29:13;23.90;37.80
30148;DHT22;16960;49.404;8.248;2022-08-07T11:31:48;23.90;37.80
30148;DHT22;16960;49.404;8.248;2022-08-07T11:34:19;23.90;37.90
30148;DHT22;16960;49.404;8.248;2022-08-07T11:36:56;23.90;37.90
30148;DHT22;16960;49.404;8.248;2022-08-07T11:42:17;24.00;37.80
30148;DHT22;16960;49.404;8.248;2022-08-07T11:44:52;24.00;37.80
30148;DHT22;16960;49.404;8.248;2022-08-07T11:47:32;24.10;37.80
30148;DHT22;16960;49.404;8.248;2022-08-07T11:50:13;24.10;37.80
30148;DHT22;16960;49.404;8.248;2022-08-07T11:52:50;24.10;37.80
30148;DHT22;16960;49.404;8.248;2022-08-07T11:55:30;24.20;37.70
30148;DHT22;16960;49.404;8.248;2022-08-07T11:58:05;24.20;37.70
30148;DHT22;16960;49.404;8.248;2022-08-07T12:00:50;24.30;37.70
30148;DHT22;16960;49.404;8.248;2022-08-07T12:06:45;24.30;37.60
30148;DHT22;16960;49.404;8.248;2022-08-07T12:09:18;24.40;37.60
30148;DHT22;16960;49.404;8.248;2022-08-07T12:11:54;24.40;37.60
30148;DHT22;16960;49.404;8.248;2022-08-07T12:14:25;24.40;37.50
30148;DHT22;16960;49.404;8.248;2022-08-07T12:16:59;24.50;37.60
30148;DHT22;16960;49.404;8.248;2022-08-07T12:19:40;24.50;37.60
30148;DHT22;16960;49.404;8.248;2022-08-07T12:22:15;24.50;37.50
30148;DHT22;16960;49.404;8.248;2022-08-07T12:24:49;24.60;37.50
30148;DHT22;16960;49.404;8.248;2022-08-07T12:27:38;24.60;37.50
30148;DHT22;16960;49.404;8.248;2022-08-07T12:30:07;24.60;37.50
30148;DHT22;16960;49.404;8.248;2022-08-07T12:32:42;24.70;37.70
30148;DHT22;16960;49.404;8.248;2022-08-07T12:35:12;24.70;37.70
30148;DHT22;16960;49.404;8.248;2022-08-07T12:37:42;24.70;37.50
30148;DHT22;16960;49.404;8.248;2022-08-07T12:40:12;24.70;37.50
30148;DHT22;16960;49.404;8.248;2022-08-07T12:42:42;24.80;37.40
30148;DHT22;16960;49.404;8.248;2022-08-07T12:45:15;24.80;37.60
30148;DHT22;16960;49.404;8.248;2022-08-07T12:47:48;24.80;37.70
30148;DHT22;16960;49.404;8.248;2022-08-07T12:50:28;24.90;37.50
30148;DHT22;16960;49.404;8.248;2022-08-07T12:52:59;24.90;37.60
30148;DHT22;16960;49.404;8.248;2022-08-07T12:55:33;24.90;37.50
30148;DHT22;16960;49.404;8.248;2022-08-07T12:58:01;24.90;37.50
30148;DHT22;16960;49.404;8.248;2022-08-07T13:00:39;25.00;37.50
30148;DHT22;16960;49.404;8.248;2022-08-07T13:03:25;25.00;37.40
30148;DHT22;16960;49.404;8.248;2022-08-07T13:06:08;25.00;37.60
30148;DHT22;16960;49.404;8.248;2022-08-07T13:08:47;25.00;37.50
30148;DHT22;16960;49.404;8.248;2022-08-07T13:11:28;25.00;37.50
30148;DHT22;16960;49.404;8.248;2022-08-07T13:14:02;25.10;37.50
30148;DHT22;16960;49.404;8.248;2022-08-07T13:16:38;25.10;37.50
30148;DHT22;16960;49.404;8.248;2022-08-07T13:19:15;25.10;37.40
30148;DHT22;16960;49.404;8.248;2022-08-07T13:21:48;25.10;37.30
30148;DHT22;16960;49.404;8.248;2022-08-07T13:24:20;25.20;37.30
30148;DHT22;16960;49.404;8.248;2022-08-07T13:26:54;25.10;37.30
30148;DHT22;16960;49.404;8.248;2022-08-07T13:29:27;25.20;37.30
30148;DHT22;16960;49.404;8.248;2022-08-07T13:31:58;25.20;37.30
30148;DHT22;16960;49.404;8.248;2022-08-07T13:34:37;25.20;37.20
30148;DHT22;16960;49.404;8.248;2022-08-07T13:37:11;25.20;37.20
30148;DHT22;16960;49.404;8.248;2022-08-07T13:39:46;25.20;37.20
30148;DHT22;16960;49.404;8.248;2022-08-07T13:42:15;25.20;37.20
30148;DHT22;16960;49.404;8.248;2022-08-07T13:44:44;25.20;37.20
30148;DHT22;16960;49.404;8.248;2022-08-07T13:47:12;25.20;37.20
30148;DHT22;16960;49.404;8.248;2022-08-07T13:49:42;25.30;37.20
30148;DHT22;16960;49.404;8.248;2022-08-07T13:52:11;25.30;37.10
30148;DHT22;16960;49.404;8.248;2022-08-07T13:54:39;25.30;37.40
30148;DHT22;16960;49.404;8.248;2022-08-07T13:57:10;25.30;37.30
30148;DHT22;16960;49.404;8.248;2022-08-07T13:59:42;25.30;37.30
30148;DHT22;16960;49.404;8.248;2022-08-07T14:02:11;25.40;37.30
30148;DHT22;16960;49.404;8.248;2022-08-07T14:04:47;25.40;37.30
30148;DHT22;16960;49.404;8.248;2022-08-07T14:07:17;25.40;37.30
30148;DHT22;16960;49.404;8.248;2022-08-07T14:09:45;25.40;37.30
30148;DHT22;16960;49.404;8.248;2022-08-07T14:12:18;25.50;37.30
30148;DHT22;16960;49.404;8.248;2022-08-07T14:14:53;25.50;37.20
30148;DHT22;16960;49.404;8.248;2022-08-07T14:17:23;25.50;37.20
30148;DHT22;16960;49.404;8.248;2022-08-07T14:19:55;25.60;37.20
30148;DHT22;16960;49.404;8.248;2022-08-07T14:22:25;25.60;37.20
30148;DHT22;16960;49.404;8.248;2022-08-07T14:24:58;25.60;37.20
30148;DHT22;16960;49.404;8.248;2022-08-07T14:27:42;25.70;37.40
30148;DHT22;16960;49.404;8.248;2022-08-07T14:30:13;25.70;37.20
30148;DHT22;16960;49.404;8.248;2022-08-07T14:32:41;25.70;37.20
30148;DHT22;16960;49.404;8.248;2022-08-07T14:35:16;25.70;37.20
30148;DHT22;16960;49.404;8.248;2022-08-07T14:37:46;25.80;37.10
30148;DHT22;16960;49.404;8.248;2022-08-07T14:40:16;25.80;37.10
30148;DHT22;16960;49.404;8.248;2022-08-07T14:42:44;25.80;37.10
30148;DHT22;16960;49.404;8.248;2022-08-07T14:45:12;25.80;37.10
30148;DHT22;16960;49.404;8.248;2022-08-07T14:47:40;25.80;37.10
30148;DHT22;16960;49.404;8.248;2022-08-07T14:50:11;25.80;37.00
30148;DHT22;16960;49.404;8.248;2022-08-07T14:52:44;25.90;37.00
30148;DHT22;16960;49.404;8.248;2022-08-07T14:55:13;25.90;37.00
30148;DHT22;16960;49.404;8.248;2022-08-07T14:57:41;25.90;37.00
30148;DHT22;16960;49.404;8.248;2022-08-07T15:00:11;26.00;37.40
30148;DHT22;16960;49.404;8.248;2022-08-07T15:02:38;26.00;37.40
30148;DHT22;16960;49.404;8.248;2022-08-07T15:05:15;26.00;37.30
30148;DHT22;16960;49.404;8.248;2022-08-07T15:07:43;26.00;37.20
30148;DHT22;16960;49.404;8.248;2022-08-07T15:10:16;26.00;37.30
30148;DHT22;16960;49.404;8.248;2022-08-07T15:12:44;26.00;37.20
30148;DHT22;16960;49.404;8.248;2022-08-07T15:15:15;26.00;37.20
30148;DHT22;16960;49.404;8.248;2022-08-07T15:17:53;26.10;37.20
30148;DHT22;16960;49.404;8.248;2022-08-07T15:20:30;26.10;37.40
30148;DHT22;16960;49.404;8.248;2022-08-07T15:22:59;26.20;37.70
30148;DHT22;16960;49.404;8.248;2022-08-07T15:25:31;26.20;37.20
30148;DHT22;16960;49.404;8.248;2022-08-07T15:28:00;26.20;37.20
30148;DHT22;16960;49.404;8.248;2022-08-07T15:30:28;26.20;37.20
30148;DHT22;16960;49.404;8.248;2022-08-07T15:32:57;26.20;37.20
30148;DHT22;16960;49.404;8.248;2022-08-07T15:35:28;26.20;37.20
30148;DHT22;16960;49.404;8.248;2022-08-07T15:37:58;26.30;37.20
30148;DHT22;16960;49.404;8.248;2022-08-07T15:40:28;26.30;37.30
30148;DHT22;16960;49.404;8.248;2022-08-07T15:43:02;26.30;37.20
30148;DHT22;16960;49.404;8.248;2022-08-07T15:45:33;26.30;37.20
30148;DHT22;16960;49.404;8.248;2022-08-07T15:48:05;26.30;37.20
30148;DHT22;16960;49.404;8.248;2022-08-07T15:50:37;26.30;37.20
30148;DHT22;16960;49.404;8.248;2022-08-07T15:53:08;26.30;37.20
30148;DHT22;16960;49.404;8.248;2022-08-07T15:55:39;26.30;37.20
30148;DHT22;16960;49.404;8.248;2022-08-07T15:58:07;26.30;37.30
30148;DHT22;16960;49.404;8.248;2022-08-07T16:00:36;26.40;37.30
30148;DHT22;16960;49.404;8.248;2022-08-07T16:03:09;26.40;37.40
30148;DHT22;16960;49.404;8.248;2022-08-07T16:05:43;26.40;37.20
30148;DHT22;16960;49.404;8.248;2022-08-07T16:08:14;26.40;37.20
30148;DHT22;16960;49.404;8.248;2022-08-07T16:10:45;26.40;37.40
30148;DHT22;16960;49.404;8.248;2022-08-07T16:16:30;26.40;37.30